Time,TemperatureF,DewpointF,PressureIn,WindDirection,WindDirectionDegrees,WindSpeedMPH,WindSpeedGustMPH,Humidity,HourlyPrecipIn,Conditions,Clouds,dailyrainin,SolarRadiationWatts/m^2,SoftwareType,DateUTC
2013-03-03 00:21:00,30.0,15.0,-100.00,WSW,237,7.0,17.0,54,0.00,,,0.00,0.000000,,2013-03-03 07:21:00,
2013-03-03 00:31:00,30.0,15.0,-100.00,WSW,237,7.0,17.0,54,0.00,,,0.00,0.000000,,2013-03-03 07:31:00,
2013-03-03 00:42:00,30.0,15.0,-100.00,WSW,237,7.0,17.0,54,0.00,,,0.00,0.000000,,2013-03-03 07:42:00,
2013-03-03 00:51:00,30.0,15.0,-100.00,WSW,237,7.0,17.0,54,0.00,,,0.00,0.000000,,2013-03-03 07:51:00,
2013-03-03 00:52:00,30.0,16.0,-100.00,SW,219,9.0,17.0,55,0.00,,,0.00,0.000000,,2013-03-03 07:52:00,
2013-03-03 01:21:00,30.0,16.0,-100.00,SW,219,9.0,17.0,55,0.00,,,0.00,0.000000,,2013-03-03 08:21:00,
2013-03-03 01:31:00,30.0,16.0,-100.00,SW,219,9.0,17.0,55,0.00,,,0.00,0.000000,,2013-03-03 08:31:00,
2013-03-03 01:41:00,30.0,16.0,-100.00,SW,219,9.0,17.0,55,0.00,,,0.00,0.000000,,2013-03-03 08:41:00,
2013-03-03 02:21:00,30.0,15.0,-100.00,WSW,242,10.0,21.0,52,0.00,,,0.00,0.000000,,2013-03-03 09:21:00,
2013-03-03 02:32:00,30.0,15.0,-100.00,WSW,242,10.0,21.0,52,0.00,,,0.00,0.000000,,2013-03-03 09:32:00,
2013-03-03 02:41:00,30.0,15.0,-100.00,WSW,242,10.0,21.0,52,0.00,,,0.00,0.000000,,2013-03-03 09:41:00,
2013-03-03 02:51:00,30.0,15.0,-100.00,WSW,242,10.0,21.0,52,0.00,,,0.00,0.000000,,2013-03-03 09:51:00,
2013-03-03 02:52:00,31.0,15.0,-100.00,WSW,255,15.0,26.0,50,0.00,,,0.00,0.000000,,2013-03-03 09:52:00,
2013-03-03 03:11:00,31.0,15.0,-100.00,WSW,255,15.0,26.0,50,0.00,,,0.00,0.000000,,2013-03-03 10:11:00,
2013-03-03 03:21:00,31.0,15.0,-100.00,WSW,255,15.0,26.0,50,0.00,,,0.00,0.000000,,2013-03-03 10:21:00,
2013-03-03 03:32:00,31.0,15.0,-100.00,WSW,255,15.0,26.0,50,0.00,,,0.00,0.000000,,2013-03-03 10:32:00,
2013-03-03 03:42:00,31.0,15.0,-100.00,WSW,255,15.0,26.0,50,0.00,,,0.00,0.000000,,2013-03-03 10:42:00,
2013-03-03 03:52:00,31.0,15.0,-100.00,WSW,252,15.0,30.0,52,0.00,,,0.00,0.000000,,2013-03-03 10:52:00,
2013-03-03 04:11:00,31.0,15.0,-100.00,WSW,252,15.0,30.0,52,0.00,,,0.00,0.000000,,2013-03-03 11:11:00,
2013-03-03 04:21:00,31.0,15.0,-100.00,WSW,252,15.0,30.0,52,0.00,,,0.00,0.000000,,2013-03-03 11:21:00,
2013-03-03 04:32:00,31.0,15.0,-100.00,WSW,252,15.0,30.0,52,0.00,,,0.00,0.000000,,2013-03-03 11:32:00,
2013-03-03 04:42:00,31.0,15.0,-100.00,WSW,252,15.0,30.0,52,0.00,,,0.00,0.000000,,2013-03-03 11:42:00,
2013-03-03 04:52:00,31.0,17.0,-100.00,WSW,252,18.0,28.0,56,0.00,,,0.00,0.000000,,2013-03-03 11:52:00,
2013-03-03 05:11:00,31.0,17.0,-100.00,WSW,252,18.0,28.0,56,0.00,,,0.00,0.000000,,2013-03-03 12:11:00,
2013-03-03 05:21:00,31.0,17.0,-100.00,WSW,252,18.0,28.0,56,0.00,,,0.00,0.000000,,2013-03-03 12:21:00,
2013-03-03 05:32:00,31.0,17.0,-100.00,WSW,252,18.0,28.0,56,0.00,,,0.00,0.000000,,2013-03-03 12:32:00,
2013-03-03 05:43:00,31.0,17.0,-100.00,WSW,252,18.0,28.0,56,0.00,,,0.00,0.000000,,2013-03-03 12:43:00,
2013-03-03 06:11:00,30.0,17.0,-100.00,WSW,251,15.0,27.0,57,0.00,,,0.00,0.000000,,2013-03-03 13:11:00,
2013-03-03 06:22:00,30.0,17.0,-100.00,WSW,251,15.0,27.0,57,0.00,,,0.00,0.000000,,2013-03-03 13:22:00,
2013-03-03 06:32:00,30.0,17.0,-100.00,WSW,251,15.0,27.0,57,0.00,,,0.00,0.000000,,2013-03-03 13:32:00,
2013-03-03 06:42:00,30.0,17.0,-100.00,WSW,251,15.0,27.0,57,0.00,,,0.00,0.000000,,2013-03-03 13:42:00,
2013-03-03 06:51:00,30.0,17.0,-100.00,WSW,251,15.0,27.0,57,0.00,,,0.00,0.000000,,2013-03-03 13:51:00,
2013-03-03 06:52:00,30.0,16.0,-100.00,WSW,256,16.0,29.0,56,0.00,,,0.00,2.000000,,2013-03-03 13:52:00,
2013-03-03 07:21:00,30.0,16.0,-100.00,WSW,256,16.0,29.0,56,0.00,,,0.00,2.000000,,2013-03-03 14:21:00,
2013-03-03 07:32:00,30.0,16.0,-100.00,WSW,256,16.0,29.0,56,0.00,,,0.00,2.000000,,2013-03-03 14:32:00,
2013-03-03 07:42:00,30.0,16.0,-100.00,WSW,256,16.0,29.0,56,0.00,,,0.00,2.000000,,2013-03-03 14:42:00,
2013-03-03 08:11:00,32.0,17.0,-100.00,WSW,255,15.0,26.0,53,0.00,,,0.00,88.000000,,2013-03-03 15:11:00,
2013-03-03 08:22:00,32.0,17.0,-100.00,WSW,255,15.0,26.0,53,0.00,,,0.00,88.000000,,2013-03-03 15:22:00,
2013-03-03 08:32:00,32.0,17.0,-100.00,WSW,255,15.0,26.0,53,0.00,,,0.00,88.000000,,2013-03-03 15:32:00,
2013-03-03 08:42:00,32.0,17.0,-100.00,WSW,255,15.0,26.0,53,0.00,,,0.00,88.000000,,2013-03-03 15:42:00,
2013-03-03 08:51:00,32.0,17.0,-100.00,WSW,255,15.0,26.0,53,0.00,,,0.00,88.000000,,2013-03-03 15:51:00,
2013-03-03 08:52:00,36.0,18.0,-100.00,WSW,255,17.0,32.0,48,0.00,,,0.00,340.000000,,2013-03-03 15:52:00,
2013-03-03 09:12:00,36.0,18.0,-100.00,WSW,255,17.0,32.0,48,0.00,,,0.00,340.000000,,2013-03-03 16:12:00,
2013-03-03 09:22:00,36.0,18.0,-100.00,WSW,255,17.0,32.0,48,0.00,,,0.00,340.000000,,2013-03-03 16:22:00,
2013-03-03 09:32:00,36.0,18.0,-100.00,WSW,255,17.0,32.0,48,0.00,,,0.00,340.000000,,2013-03-03 16:32:00,
2013-03-03 09:42:00,36.0,18.0,-100.00,WSW,255,17.0,32.0,48,0.00,,,0.00,340.000000,,2013-03-03 16:42:00,
2013-03-03 09:52:00,37.0,22.0,-100.00,WSW,252,20.0,32.0,54,0.00,,,0.00,577.000000,,2013-03-03 16:52:00,
2013-03-03 10:11:00,37.0,22.0,-100.00,WSW,252,20.0,32.0,54,0.00,,,0.00,577.000000,,2013-03-03 17:11:00,
2013-03-03 10:22:00,37.0,22.0,-100.00,WSW,252,20.0,32.0,54,0.00,,,0.00,577.000000,,2013-03-03 17:22:00,
2013-03-03 10:32:00,37.0,22.0,-100.00,WSW,252,20.0,32.0,54,0.00,,,0.00,577.000000,,2013-03-03 17:32:00,
2013-03-03 10:42:00,37.0,22.0,-100.00,WSW,252,20.0,32.0,54,0.00,,,0.00,577.000000,,2013-03-03 17:42:00,
2013-03-03 10:52:00,35.0,22.0,-100.00,West,267,20.0,36.0,59,0.00,,,0.00,540.000000,,2013-03-03 17:52:00,
2013-03-03 11:21:00,35.0,22.0,-100.00,West,267,20.0,36.0,59,0.00,,,0.00,540.000000,,2013-03-03 18:21:00,
2013-03-03 11:32:00,35.0,22.0,-100.00,West,267,20.0,36.0,59,0.00,,,0.00,540.000000,,2013-03-03 18:32:00,
2013-03-03 11:42:00,35.0,22.0,-100.00,West,267,20.0,36.0,59,0.00,,,0.00,540.000000,,2013-03-03 18:42:00,
2013-03-03 12:11:00,35.0,23.0,-100.00,West,266,18.0,31.0,60,0.00,,,0.00,536.000000,,2013-03-03 19:11:00,
2013-03-03 12:22:00,35.0,23.0,-100.00,West,266,18.0,31.0,60,0.00,,,0.00,536.000000,,2013-03-03 19:22:00,
2013-03-03 12:32:00,35.0,23.0,-100.00,West,266,18.0,31.0,60,0.00,,,0.00,536.000000,,2013-03-03 19:32:00,
2013-03-03 12:42:00,35.0,23.0,-100.00,West,266,18.0,31.0,60,0.00,,,0.00,536.000000,,2013-03-03 19:42:00,
2013-03-03 12:51:00,35.0,23.0,-100.00,West,266,18.0,31.0,60,0.00,,,0.00,536.000000,,2013-03-03 19:51:00,
2013-03-03 12:52:00,34.0,24.0,-100.00,West,262,18.0,32.0,67,0.00,,,0.00,509.000000,,2013-03-03 19:52:00,
2013-03-03 13:11:00,34.0,24.0,-100.00,West,262,18.0,32.0,67,0.00,,,0.00,509.000000,,2013-03-03 20:11:00,
2013-03-03 13:22:00,34.0,24.0,-100.00,West,262,18.0,32.0,67,0.00,,,0.00,509.000000,,2013-03-03 20:22:00,
2013-03-03 13:32:00,34.0,24.0,-100.00,West,262,18.0,32.0,67,0.00,,,0.00,509.000000,,2013-03-03 20:32:00,
2013-03-03 13:42:00,34.0,24.0,-100.00,West,262,18.0,32.0,67,0.00,,,0.00,509.000000,,2013-03-03 20:42:00,
2013-03-03 13:52:00,31.0,25.0,-100.00,WSW,251,15.0,27.0,79,0.00,,,0.00,255.000000,,2013-03-03 20:52:00,
2013-03-03 14:11:00,31.0,25.0,-100.00,WSW,251,15.0,27.0,79,0.00,,,0.00,255.000000,,2013-03-03 21:11:00,
2013-03-03 14:22:00,31.0,25.0,-100.00,WSW,251,15.0,27.0,79,0.00,,,0.00,255.000000,,2013-03-03 21:22:00,
2013-03-03 14:32:00,31.0,25.0,-100.00,WSW,251,15.0,27.0,79,0.00,,,0.00,255.000000,,2013-03-03 21:32:00,
2013-03-03 14:42:00,31.0,25.0,-100.00,WSW,251,15.0,27.0,79,0.00,,,0.00,255.000000,,2013-03-03 21:42:00,
2013-03-03 14:52:00,33.0,24.0,-100.00,WSW,251,11.0,22.0,69,0.00,,,0.00,179.000000,,2013-03-03 21:52:00,
2013-03-03 15:11:00,33.0,24.0,-100.00,WSW,251,11.0,22.0,69,0.00,,,0.00,179.000000,,2013-03-03 22:11:00,
2013-03-03 15:22:00,33.0,24.0,-100.00,WSW,251,11.0,22.0,69,0.00,,,0.00,179.000000,,2013-03-03 22:22:00,
2013-03-03 15:32:00,33.0,24.0,-100.00,WSW,251,11.0,22.0,69,0.00,,,0.00,179.000000,,2013-03-03 22:32:00,
2013-03-03 15:42:00,33.0,24.0,-100.00,WSW,251,11.0,22.0,69,0.00,,,0.00,179.000000,,2013-03-03 22:42:00,
2013-03-03 15:52:00,31.0,22.0,-100.00,WSW,254,13.0,25.0,69,0.00,,,0.00,120.000000,,2013-03-03 22:52:00,
2013-03-03 16:11:00,31.0,22.0,-100.00,WSW,254,13.0,25.0,69,0.00,,,0.00,120.000000,,2013-03-03 23:11:00,
2013-03-03 16:21:00,31.0,22.0,-100.00,WSW,254,13.0,25.0,69,0.00,,,0.00,120.000000,,2013-03-03 23:21:00,
2013-03-03 16:32:00,31.0,22.0,-100.00,WSW,254,13.0,25.0,69,0.00,,,0.00,120.000000,,2013-03-03 23:32:00,
2013-03-03 16:42:00,31.0,22.0,-100.00,WSW,254,13.0,25.0,69,0.00,,,0.00,120.000000,,2013-03-03 23:42:00,
2013-03-03 16:52:00,30.0,24.0,-100.00,West,276,14.0,29.0,77,0.00,,,0.00,41.000000,,2013-03-03 23:52:00,
2013-03-03 17:11:00,30.0,24.0,-100.00,West,276,14.0,29.0,77,0.00,,,0.00,41.000000,,2013-03-04 00:11:00,
2013-03-03 17:21:00,30.0,24.0,-100.00,West,276,14.0,29.0,77,0.00,,,0.00,41.000000,,2013-03-04 00:21:00,
2013-03-03 17:32:00,30.0,24.0,-100.00,West,276,14.0,29.0,77,0.00,,,0.00,41.000000,,2013-03-04 00:32:00,
2013-03-03 17:42:00,30.0,24.0,-100.00,West,276,14.0,29.0,77,0.00,,,0.00,41.000000,,2013-03-04 00:42:00,
2013-03-03 18:21:00,29.0,24.0,-100.00,WSW,247,10.0,23.0,81,0.00,,,0.00,28.000000,,2013-03-04 01:21:00,
2013-03-03 18:32:00,29.0,24.0,-100.00,WSW,247,10.0,23.0,81,0.00,,,0.00,28.000000,,2013-03-04 01:32:00,
2013-03-03 18:42:00,29.0,24.0,-100.00,WSW,247,10.0,23.0,81,0.00,,,0.00,28.000000,,2013-03-04 01:42:00,
2013-03-03 18:51:00,29.0,24.0,-100.00,WSW,247,10.0,23.0,81,0.00,,,0.00,28.000000,,2013-03-04 01:51:00,
2013-03-03 18:52:00,29.0,23.0,-100.00,WSW,247,9.0,21.0,78,0.00,,,0.00,1.000000,,2013-03-04 01:52:00,
2013-03-03 19:11:00,29.0,23.0,-100.00,WSW,247,9.0,21.0,78,0.00,,,0.00,1.000000,,2013-03-04 02:11:00,
2013-03-03 19:22:00,29.0,23.0,-100.00,WSW,247,9.0,21.0,78,0.00,,,0.00,1.000000,,2013-03-04 02:22:00,
2013-03-03 19:32:00,29.0,23.0,-100.00,WSW,247,9.0,21.0,78,0.00,,,0.00,1.000000,,2013-03-04 02:32:00,
2013-03-03 19:42:00,29.0,23.0,-100.00,WSW,247,9.0,21.0,78,0.00,,,0.00,1.000000,,2013-03-04 02:42:00,
2013-03-03 19:52:00,28.0,23.0,-100.00,WSW,242,8.0,16.0,82,0.00,,,0.00,0.000000,,2013-03-04 02:52:00,
2013-03-03 20:22:00,28.0,23.0,-100.00,WSW,242,8.0,16.0,82,0.00,,,0.00,0.000000,,2013-03-04 03:22:00,
2013-03-03 20:32:00,28.0,23.0,-100.00,WSW,242,8.0,16.0,82,0.00,,,0.00,0.000000,,2013-03-04 03:32:00,
2013-03-03 20:42:00,28.0,23.0,-100.00,WSW,242,8.0,16.0,82,0.00,,,0.00,0.000000,,2013-03-04 03:42:00,
2013-03-03 21:22:00,28.0,24.0,-100.00,WSW,257,10.0,18.0,83,0.00,,,0.00,0.000000,,2013-03-04 04:22:00,
2013-03-03 21:32:00,28.0,24.0,-100.00,WSW,257,10.0,18.0,83,0.00,,,0.00,0.000000,,2013-03-04 04:32:00,
2013-03-03 21:42:00,28.0,24.0,-100.00,WSW,257,10.0,18.0,83,0.00,,,0.00,0.000000,,2013-03-04 04:42:00,
2013-03-03 21:51:00,28.0,24.0,-100.00,WSW,257,10.0,18.0,83,0.00,,,0.00,0.000000,,2013-03-04 04:51:00,
2013-03-03 21:52:00,28.0,23.0,-100.00,West,271,13.0,21.0,81,0.00,,,0.00,0.000000,,2013-03-04 04:52:00,
2013-03-03 22:11:00,28.0,23.0,-100.00,West,271,13.0,21.0,81,0.00,,,0.00,0.000000,,2013-03-04 05:11:00,
2013-03-03 22:22:00,28.0,23.0,-100.00,West,271,13.0,21.0,81,0.00,,,0.00,0.000000,,2013-03-04 05:22:00,
2013-03-03 22:32:00,28.0,23.0,-100.00,West,271,13.0,21.0,81,0.00,,,0.00,0.000000,,2013-03-04 05:32:00,
2013-03-03 22:42:00,28.0,23.0,-100.00,West,271,13.0,21.0,81,0.00,,,0.00,0.000000,,2013-03-04 05:42:00,
2013-03-03 23:11:00,27.0,22.0,-100.00,West,265,12.0,20.0,82,0.00,,,0.00,0.000000,,2013-03-04 06:11:00,
2013-03-03 23:21:00,27.0,22.0,-100.00,West,265,12.0,20.0,82,0.00,,,0.00,0.000000,,2013-03-04 06:21:00,
2013-03-03 23:32:00,27.0,22.0,-100.00,West,265,12.0,20.0,82,0.00,,,0.00,0.000000,,2013-03-04 06:32:00,
2013-03-03 23:42:00,27.0,22.0,-100.00,West,265,12.0,20.0,82,0.00,,,0.00,0.000000,,2013-03-04 06:42:00,
2013-03-03 23:51:00,27.0,22.0,-100.00,West,265,12.0,20.0,82,0.00,,,0.00,0.000000,,2013-03-04 06:51:00,